createdAt,value
2017-06-10T00:01:11.029Z,15.20
2017-06-10T00:03:47.593Z,15.10
2017-06-10T00:06:22.181Z,15.00
2017-06-10T00:08:56.083Z,14.90
2017-06-10T00:11:29.895Z,15.00
2017-06-10T00:14:03.524Z,15.00
2017-06-10T00:16:37.248Z,14.90
2017-06-10T00:19:11.184Z,14.80
2017-06-10T00:21:45.708Z,14.80
2017-06-10T00:24:19.333Z,14.70
2017-06-10T00:26:53.037Z,14.80
2017-06-10T00:29:27.592Z,14.70
2017-06-10T00:32:02.088Z,14.70
2017-06-10T00:34:38.079Z,14.60
2017-06-10T00:37:11.651Z,14.60
2017-06-10T00:39:46.109Z,14.50
2017-06-10T00:42:20.010Z,14.50
2017-06-10T00:44:54.505Z,14.50
2017-06-10T00:47:29.012Z,14.40
2017-06-10T00:50:03.780Z,14.40
2017-06-10T00:52:38.364Z,14.40
2017-06-10T00:55:12.229Z,14.30
2017-06-10T00:57:47.518Z,14.40
2017-06-10T01:00:22.264Z,14.40
2017-06-10T01:02:56.181Z,14.30
2017-06-10T01:05:31.640Z,14.30
2017-06-10T01:08:05.572Z,14.20
2017-06-10T01:10:40.071Z,14.30
2017-06-10T01:13:14.041Z,14.30
2017-06-10T01:15:49.700Z,14.30
2017-06-10T01:18:23.348Z,14.20
2017-06-10T01:20:58.689Z,14.40
2017-06-10T01:23:33.355Z,14.40
2017-06-10T01:26:07.222Z,14.30
2017-06-10T01:28:41.773Z,14.40
2017-06-10T01:31:15.401Z,14.40
2017-06-10T01:33:49.904Z,14.40
2017-06-10T01:36:23.913Z,14.40
2017-06-10T01:38:58.411Z,14.40
2017-06-10T01:41:32.201Z,14.40
2017-06-10T01:44:05.885Z,14.30
2017-06-10T01:46:40.633Z,14.30
2017-06-10T01:49:15.039Z,14.20
2017-06-10T01:51:49.674Z,14.20
2017-06-10T01:54:23.400Z,14.10
2017-06-10T01:56:58.185Z,14.10
2017-06-10T01:59:31.908Z,14.10
2017-06-10T02:02:05.568Z,14.10
2017-06-10T02:04:40.805Z,13.90
2017-06-10T02:07:14.709Z,13.80
2017-06-10T02:09:48.317Z,13.80
2017-06-10T02:12:22.051Z,13.80
2017-06-10T02:14:56.571Z,13.80
2017-06-10T02:17:31.610Z,13.80
2017-06-10T02:20:05.824Z,13.80
2017-06-10T02:22:39.596Z,13.70
2017-06-10T02:25:14.029Z,13.70
2017-06-10T02:27:48.581Z,13.70
2017-06-10T02:30:23.153Z,13.60
2017-06-10T02:32:57.037Z,13.60
2017-06-10T02:35:31.486Z,13.60
2017-06-10T02:38:05.380Z,13.50
2017-06-10T02:40:40.540Z,13.50
2017-06-10T02:43:14.693Z,13.50
2017-06-10T02:45:48.447Z,13.50
2017-06-10T02:48:22.201Z,13.50
2017-06-10T02:50:55.825Z,13.50
2017-06-10T02:53:29.641Z,13.50
2017-06-10T02:56:03.351Z,13.60
2017-06-10T02:58:37.032Z,13.50
2017-06-10T03:01:11.630Z,13.40
2017-06-10T03:03:47.099Z,13.40
2017-06-10T03:06:21.668Z,13.30
2017-06-10T03:08:56.448Z,13.30
2017-06-10T03:11:30.141Z,13.20
2017-06-10T03:14:03.929Z,13.30
2017-06-10T03:16:49.981Z,13.30
2017-06-10T03:19:23.884Z,13.20
2017-06-10T03:21:58.485Z,13.30
2017-06-10T03:24:33.004Z,13.20
2017-06-10T03:27:06.936Z,13.10
2017-06-10T03:29:41.524Z,13.20
2017-06-10T03:32:16.008Z,13.20
2017-06-10T03:34:50.044Z,13.10
2017-06-10T03:37:25.459Z,13.30
2017-06-10T03:39:59.201Z,13.30
2017-06-10T03:42:33.596Z,13.40
2017-06-10T03:45:08.237Z,13.40
2017-06-10T03:47:41.973Z,13.40
2017-06-10T03:50:16.596Z,13.40
2017-06-10T03:52:50.390Z,13.30
2017-06-10T03:55:24.812Z,13.30
2017-06-10T03:57:58.621Z,13.20
2017-06-10T04:00:32.452Z,13.40
2017-06-10T04:03:07.003Z,13.40
2017-06-10T04:05:41.556Z,13.20
2017-06-10T04:08:15.182Z,13.10
2017-06-10T04:10:50.700Z,13.30
2017-06-10T04:13:24.621Z,13.30
2017-06-10T04:15:59.234Z,13.20
2017-06-10T04:18:33.693Z,13.30
2017-06-10T04:21:07.329Z,13.40
2017-06-10T04:23:41.113Z,13.40
2017-06-10T04:26:14.876Z,13.60
2017-06-10T04:28:48.570Z,13.60
2017-06-10T04:31:23.329Z,13.70
2017-06-10T04:33:58.605Z,13.90
2017-06-10T04:36:33.287Z,14.00
2017-06-10T04:39:07.172Z,14.00
2017-06-10T04:41:41.668Z,14.20
2017-06-10T04:44:16.096Z,14.20
2017-06-10T04:46:50.639Z,14.10
2017-06-10T04:49:24.686Z,14.00
2017-06-10T04:51:58.407Z,14.10
2017-06-10T04:54:32.889Z,14.20
2017-06-10T04:57:06.613Z,14.30
2017-06-10T04:59:41.689Z,14.30
2017-06-10T05:02:15.764Z,14.30
2017-06-10T05:04:49.449Z,14.40
2017-06-10T05:07:23.246Z,14.40
2017-06-10T05:09:57.812Z,14.60
2017-06-10T05:12:31.645Z,14.60
2017-06-10T05:15:06.885Z,14.70
2017-06-10T05:17:41.529Z,14.90
2017-06-10T05:20:15.321Z,14.90
2017-06-10T05:22:49.077Z,15.00
2017-06-10T05:25:23.632Z,15.00
2017-06-10T05:27:57.602Z,15.00
2017-06-10T05:30:31.309Z,15.10
2017-06-10T05:33:04.928Z,15.20
2017-06-10T05:35:39.489Z,15.30
2017-06-10T05:38:13.164Z,15.50
2017-06-10T05:40:47.756Z,15.60
2017-06-10T05:43:22.488Z,15.70
2017-06-10T05:45:57.765Z,15.80
2017-06-10T05:48:31.821Z,15.70
2017-06-10T05:51:06.361Z,15.80
2017-06-10T05:53:40.100Z,15.70
2017-06-10T05:56:15.272Z,15.80
2017-06-10T05:58:50.020Z,15.80
2017-06-10T06:01:23.844Z,15.70
2017-06-10T06:03:59.380Z,15.90
2017-06-10T06:06:33.846Z,16.00
2017-06-10T06:09:07.824Z,15.90
2017-06-10T06:11:41.488Z,16.00
2017-06-10T06:14:16.244Z,16.00
2017-06-10T06:16:50.609Z,16.00
2017-06-10T06:19:25.497Z,16.10
2017-06-10T06:21:59.428Z,16.00
2017-06-10T06:24:33.189Z,16.10
2017-06-10T06:27:06.913Z,16.30
2017-06-10T06:29:41.528Z,16.50
2017-06-10T06:32:15.372Z,16.40
2017-06-10T06:34:49.020Z,16.60
2017-06-10T06:37:23.553Z,16.70
2017-06-10T06:39:57.341Z,16.60
2017-06-10T06:42:31.729Z,16.50
2017-06-10T06:45:05.561Z,16.30
2017-06-10T06:47:39.961Z,16.20
2017-06-10T06:50:14.416Z,16.10
2017-06-10T06:52:48.292Z,16.10
2017-06-10T06:55:22.862Z,16.00
2017-06-10T06:57:56.716Z,16.00
2017-06-10T07:00:30.481Z,16.30
2017-06-10T07:03:05.028Z,16.40
2017-06-10T07:05:38.736Z,16.20
2017-06-10T07:08:13.164Z,16.50
2017-06-10T07:10:46.925Z,16.50
2017-06-10T07:13:21.440Z,16.40
2017-06-10T07:15:55.185Z,16.70
2017-06-10T07:18:29.741Z,16.70
2017-06-10T07:21:03.651Z,16.60
2017-06-10T07:23:38.067Z,16.90
2017-06-10T07:26:11.925Z,16.90
2017-06-10T07:28:45.693Z,17.20
2017-06-10T07:31:19.465Z,17.10
2017-06-10T07:33:53.092Z,17.10
2017-06-10T07:36:26.880Z,16.90
2017-06-10T07:39:00.600Z,16.80
2017-06-10T07:41:34.395Z,16.90
2017-06-10T07:44:08.106Z,16.80
2017-06-10T07:46:42.861Z,16.70
2017-06-10T07:49:17.348Z,16.90
2017-06-10T07:51:52.130Z,16.90
2017-06-10T07:54:26.704Z,17.10
2017-06-10T07:57:00.585Z,17.00
2017-06-10T07:59:35.134Z,17.30
2017-06-10T08:02:09.300Z,17.20
2017-06-10T08:04:44.493Z,17.30
2017-06-10T08:07:18.389Z,17.20
2017-06-10T08:09:52.828Z,17.30
2017-06-10T08:12:26.640Z,17.30
2017-06-10T08:15:01.100Z,17.30
2017-06-10T08:17:34.982Z,17.30
2017-06-10T08:20:08.704Z,17.40
2017-06-10T08:22:43.407Z,17.50
2017-06-10T08:25:17.228Z,17.50
2017-06-10T08:27:51.089Z,17.50
2017-06-10T08:30:24.717Z,17.60
2017-06-10T08:32:59.364Z,17.70
2017-06-10T08:35:33.959Z,17.90
2017-06-10T08:38:08.064Z,17.80
2017-06-10T08:40:42.572Z,17.90
2017-06-10T08:43:16.444Z,17.90
2017-06-10T08:45:50.812Z,18.10
2017-06-10T08:48:25.677Z,18.10
2017-06-10T08:50:59.704Z,18.10
2017-06-10T08:53:33.649Z,18.20
2017-06-10T08:56:07.236Z,18.20
2017-06-10T08:58:41.028Z,18.30
2017-06-10T09:01:14.869Z,18.20
2017-06-10T09:03:49.608Z,18.30
2017-06-10T09:06:23.328Z,18.40
2017-06-10T09:08:57.115Z,18.40
2017-06-10T09:11:30.704Z,18.40
2017-06-10T09:14:04.342Z,18.40
2017-06-10T09:16:38.012Z,18.50
2017-06-10T09:19:11.880Z,18.50
2017-06-10T09:21:45.568Z,18.50
2017-06-10T09:24:20.104Z,18.60
2017-06-10T09:26:54.028Z,18.50
2017-06-10T09:29:27.891Z,18.70
2017-06-10T09:32:01.555Z,18.70
2017-06-10T09:34:36.396Z,18.80
2017-06-10T09:37:10.009Z,18.80
2017-06-10T09:39:43.940Z,18.90
2017-06-10T09:42:18.433Z,18.90
2017-06-10T09:44:52.599Z,18.80
2017-06-10T09:47:27.888Z,18.90
2017-06-10T09:50:01.798Z,18.90
2017-06-10T09:52:35.437Z,19.00
2017-06-10T09:55:09.186Z,19.00
2017-06-10T09:57:43.037Z,19.20
2017-06-10T10:00:16.936Z,19.30
2017-06-10T10:02:50.717Z,19.30
2017-06-10T10:05:25.527Z,19.20
2017-06-10T10:07:59.304Z,19.30
2017-06-10T10:10:33.713Z,19.30
2017-06-10T10:13:07.680Z,19.30
2017-06-10T10:15:41.565Z,19.40
2017-06-10T10:18:15.308Z,19.60
2017-06-10T10:20:50.077Z,19.70
2017-06-10T10:23:24.064Z,19.60
2017-06-10T10:25:58.189Z,19.80
2017-06-10T10:28:33.493Z,19.90
2017-06-10T10:31:07.580Z,19.80
2017-06-10T10:33:41.237Z,19.80
2017-06-10T10:36:15.089Z,19.90
2017-06-10T10:38:49.637Z,20.00
2017-06-10T10:41:23.507Z,19.90
2017-06-10T10:43:57.196Z,20.00
2017-06-10T10:46:30.913Z,20.00
2017-06-10T10:49:04.701Z,20.00
2017-06-10T10:51:38.434Z,20.00
2017-06-10T10:54:12.057Z,20.00
2017-06-10T10:56:45.880Z,20.10
2017-06-10T10:59:19.491Z,20.10
2017-06-10T11:01:54.250Z,20.10
2017-06-10T11:04:28.073Z,20.00
2017-06-10T11:07:01.924Z,20.20
2017-06-10T11:09:35.476Z,20.20
2017-06-10T11:12:09.221Z,20.30
2017-06-10T11:14:43.211Z,20.40
2017-06-10T11:17:17.972Z,20.80
2017-06-10T11:19:51.788Z,20.80
2017-06-10T11:22:26.322Z,21.20
2017-06-10T11:25:01.009Z,21.30
2017-06-10T11:27:35.066Z,21.20
2017-06-10T11:30:08.776Z,21.40
2017-06-10T11:32:42.600Z,21.40
2017-06-10T11:35:17.105Z,21.50
2017-06-10T11:37:51.040Z,21.50
2017-06-10T11:40:24.820Z,21.50
2017-06-10T11:42:58.476Z,21.40
2017-06-10T11:45:32.889Z,21.20
2017-06-10T11:48:06.866Z,21.20
2017-06-10T11:50:41.317Z,21.00
2017-06-10T11:53:15.329Z,21.00
2017-06-10T11:55:48.917Z,21.00
2017-06-10T11:58:22.836Z,20.90
2017-06-10T12:00:56.420Z,20.90
2017-06-10T12:03:30.312Z,20.90
2017-06-10T12:06:04.865Z,21.10
2017-06-10T12:08:38.919Z,21.00
2017-06-10T12:11:12.739Z,21.30
2017-06-10T12:13:47.338Z,21.70
2017-06-10T12:16:21.265Z,21.70
2017-06-10T12:18:54.981Z,21.90
2017-06-10T12:21:29.555Z,22.00
2017-06-10T12:24:04.325Z,22.10
2017-06-10T12:26:38.129Z,22.00
2017-06-10T12:29:12.748Z,22.20
2017-06-10T12:31:46.556Z,22.10
2017-06-10T12:34:21.311Z,22.20
2017-06-10T12:36:55.022Z,22.40
2017-06-10T12:39:29.025Z,22.40
2017-06-10T12:42:03.596Z,22.40
2017-06-10T12:44:38.060Z,22.50
2017-06-10T12:47:11.976Z,22.40
2017-06-10T12:49:45.695Z,22.50
2017-06-10T12:52:19.308Z,22.60
2017-06-10T12:54:53.863Z,22.60
2017-06-10T12:57:27.791Z,22.60
2017-06-10T13:00:03.145Z,22.90
2017-06-10T13:02:37.020Z,22.90
2017-06-10T13:05:11.973Z,23.00
2017-06-10T13:07:45.727Z,22.90
2017-06-10T13:10:19.626Z,23.00
2017-06-10T13:12:53.284Z,23.20
2017-06-10T13:15:27.201Z,23.10
2017-06-10T13:18:01.712Z,23.10
2017-06-10T13:20:36.276Z,23.10
2017-06-10T13:23:09.896Z,23.30
2017-06-10T13:25:44.672Z,23.40
2017-06-10T13:28:19.152Z,23.80
2017-06-10T13:30:52.897Z,24.00
2017-06-10T13:33:27.272Z,24.50
2017-06-10T13:36:02.132Z,24.40
2017-06-10T13:38:35.736Z,24.60
2017-06-10T13:41:10.256Z,24.90
2017-06-10T13:43:44.049Z,24.80
2017-06-10T13:46:17.732Z,25.10
2017-06-10T13:48:52.282Z,25.10
2017-06-10T13:51:26.037Z,25.30
2017-06-10T13:53:59.725Z,25.60
2017-06-10T13:56:34.235Z,25.90
2017-06-10T13:59:08.813Z,25.90
2017-06-10T14:01:42.825Z,25.90
2017-06-10T14:04:17.381Z,26.00
2017-06-10T14:06:51.305Z,26.00
2017-06-10T14:09:24.932Z,26.10
2017-06-10T14:11:58.756Z,26.40
2017-06-10T14:14:32.341Z,26.80
2017-06-10T14:17:06.268Z,26.90
2017-06-10T14:19:40.824Z,26.80
2017-06-10T14:22:15.524Z,26.30
2017-06-10T14:24:49.135Z,26.30
2017-06-10T14:27:22.952Z,26.20
2017-06-10T14:29:57.479Z,26.20
2017-06-10T14:32:31.348Z,26.20
2017-06-10T14:35:06.604Z,25.60
2017-06-10T14:37:40.763Z,25.50
2017-06-10T14:40:15.274Z,25.40
2017-06-10T14:42:49.305Z,25.40
2017-06-10T14:45:22.980Z,26.00
2017-06-10T14:47:56.793Z,26.40
2017-06-10T14:50:30.669Z,26.70
2017-06-10T14:53:04.436Z,26.70
2017-06-10T14:55:38.069Z,26.80
2017-06-10T14:58:12.059Z,26.80
2017-06-10T15:00:46.585Z,26.60
2017-06-10T15:03:21.217Z,26.10
2017-06-10T15:05:55.134Z,26.00
2017-06-10T15:08:29.866Z,26.00
2017-06-10T15:11:03.770Z,25.90
2017-06-10T15:13:37.649Z,26.10
2017-06-10T15:16:11.373Z,26.50
2017-06-10T15:18:45.246Z,26.70
2017-06-10T15:21:19.772Z,27.10
2017-06-10T15:23:54.019Z,27.80
2017-06-10T15:26:29.220Z,28.90
2017-06-10T15:29:03.356Z,28.80
2017-06-10T15:31:36.970Z,29.20
2017-06-10T15:34:12.824Z,29.70
2017-06-10T15:36:47.322Z,29.70
2017-06-10T15:39:22.391Z,29.70
2017-06-10T15:41:56.252Z,29.60
2017-06-10T15:44:30.830Z,30.40
2017-06-10T15:47:04.760Z,30.30
2017-06-10T15:49:39.477Z,30.20
2017-06-10T15:52:13.275Z,30.10
2017-06-10T15:54:48.080Z,31.40
2017-06-10T15:57:22.020Z,31.30
2017-06-10T15:59:56.257Z,31.60
2017-06-10T16:02:30.436Z,31.20
2017-06-10T16:05:06.141Z,30.70
2017-06-10T16:07:39.891Z,30.60
2017-06-10T16:10:14.489Z,31.60
2017-06-10T16:12:48.320Z,31.50
2017-06-10T16:15:23.037Z,31.50
2017-06-10T16:17:57.048Z,31.40
2017-06-10T16:20:30.923Z,31.80
2017-06-10T16:23:05.352Z,31.40
2017-06-10T16:25:40.141Z,31.50
2017-06-10T16:28:13.852Z,31.40
2017-06-10T16:30:48.545Z,32.20
2017-06-10T16:33:22.454Z,32.20
2017-06-10T16:35:59.117Z,33.10
2017-06-10T16:38:32.851Z,33.00
2017-06-10T16:41:06.656Z,33.20
2017-06-10T16:43:40.338Z,33.00
2017-06-10T16:46:15.081Z,32.70
2017-06-10T16:48:48.981Z,32.60
2017-06-10T16:51:22.951Z,32.40
2017-06-10T16:53:57.500Z,32.80
2017-06-10T16:56:32.029Z,32.50
2017-06-10T16:59:05.939Z,32.50
2017-06-10T17:01:39.632Z,31.70
2017-06-10T17:04:13.440Z,30.90
2017-06-10T17:06:48.164Z,29.90
2017-06-10T17:09:21.877Z,29.30
2017-06-10T17:11:55.778Z,28.80
2017-06-10T17:14:30.289Z,28.30
2017-06-10T17:17:05.044Z,27.90
2017-06-10T17:19:38.845Z,27.90
2017-06-10T17:22:12.684Z,27.60
2017-06-10T17:24:46.396Z,27.30
2017-06-10T17:27:20.208Z,27.10
2017-06-10T17:29:53.806Z,27.00
2017-06-10T17:32:27.617Z,26.90
2017-06-10T17:35:01.216Z,26.90
2017-06-10T17:37:35.036Z,26.60
2017-06-10T17:40:08.836Z,26.40
2017-06-10T17:42:42.693Z,26.40
2017-06-10T17:45:16.334Z,26.40
2017-06-10T17:47:50.037Z,26.60
2017-06-10T17:50:23.906Z,27.30
2017-06-10T17:52:58.428Z,28.30
2017-06-10T17:55:32.364Z,28.20
2017-06-10T17:58:06.090Z,28.40
2017-06-10T18:00:39.692Z,28.20
2017-06-10T18:03:14.544Z,27.70
2017-06-10T18:05:48.304Z,27.60
2017-06-10T18:08:22.157Z,27.50
2017-06-10T18:10:55.784Z,27.30
2017-06-10T18:13:29.629Z,27.10
2017-06-10T18:16:03.422Z,27.20
2017-06-10T18:18:37.979Z,26.90
2017-06-10T18:21:11.624Z,26.60
2017-06-10T18:23:49.136Z,26.50
2017-06-10T18:26:23.792Z,26.30
2017-06-10T18:28:57.793Z,26.30
2017-06-10T18:31:31.932Z,26.20
2017-06-10T18:34:07.557Z,26.10
2017-06-10T18:36:41.311Z,26.10
2017-06-10T18:39:15.251Z,26.20
2017-06-10T18:41:49.025Z,26.10
2017-06-10T18:44:22.968Z,26.00
2017-06-10T18:46:56.552Z,26.00
2017-06-10T18:49:31.107Z,25.80
2017-06-10T18:52:04.940Z,25.70
2017-06-10T18:54:38.908Z,25.60
2017-06-10T18:57:12.553Z,25.50
2017-06-10T18:59:46.484Z,25.40
2017-06-10T19:02:21.084Z,25.20
2017-06-10T19:04:56.085Z,25.10
2017-06-10T19:07:30.520Z,24.80
2017-06-10T19:10:05.509Z,24.60
2017-06-10T19:12:39.413Z,24.60
2017-06-10T19:15:13.277Z,24.50
2017-06-10T19:17:47.020Z,24.40
2017-06-10T19:20:21.752Z,24.10
2017-06-10T19:22:55.500Z,24.00
2017-06-10T19:25:29.467Z,23.90
2017-06-10T19:28:04.773Z,23.50
2017-06-10T19:30:39.632Z,23.40
2017-06-10T19:33:13.476Z,23.30
2017-06-10T19:35:49.437Z,23.10
2017-06-10T19:38:23.096Z,23.00
2017-06-10T19:40:57.808Z,22.80
2017-06-10T19:43:31.728Z,22.70
2017-06-10T19:46:05.670Z,22.60
2017-06-10T19:48:40.129Z,22.40
2017-06-10T19:51:15.302Z,22.30
2017-06-10T19:53:49.988Z,22.20
2017-06-10T19:56:24.004Z,22.10
2017-06-10T19:58:57.677Z,22.10
2017-06-10T20:01:31.596Z,22.00
2017-06-10T20:04:06.056Z,22.00
2017-06-10T20:06:41.960Z,21.80
2017-06-10T20:09:17.229Z,21.70
2017-06-10T20:11:51.532Z,21.60
2017-06-10T20:14:26.788Z,21.50
2017-06-10T20:17:01.159Z,21.40
2017-06-10T20:19:36.344Z,21.30
2017-06-10T20:22:11.325Z,21.20
2017-06-10T20:24:46.001Z,21.10
2017-06-10T20:27:20.029Z,21.10
2017-06-10T20:29:54.537Z,20.90
2017-06-10T20:32:28.724Z,20.90
2017-06-10T20:35:02.428Z,20.90
2017-06-10T20:37:37.448Z,20.80
2017-06-10T20:40:11.133Z,20.80
2017-06-10T20:42:45.088Z,20.80
2017-06-10T20:45:18.715Z,20.70
2017-06-10T20:47:52.619Z,20.70
2017-06-10T20:50:27.037Z,20.60
2017-06-10T20:53:01.116Z,20.50
2017-06-10T20:55:34.701Z,20.50
2017-06-10T20:58:08.580Z,20.50
2017-06-10T21:00:42.311Z,20.40
2017-06-10T21:03:16.986Z,20.20
2017-06-10T21:05:50.764Z,20.20
2017-06-10T21:08:24.745Z,20.20
2017-06-10T21:10:58.345Z,20.20
2017-06-10T21:13:33.049Z,20.10
2017-06-10T21:16:06.780Z,20.00
2017-06-10T21:18:40.760Z,20.00
2017-06-10T21:21:14.356Z,19.90
2017-06-10T21:23:48.120Z,19.80
2017-06-10T21:26:21.893Z,19.70
2017-06-10T21:28:55.904Z,19.60
2017-06-10T21:31:30.396Z,19.50
2017-06-10T21:34:05.420Z,19.50
2017-06-10T21:36:39.100Z,19.40
2017-06-10T21:39:13.074Z,19.40
2017-06-10T21:41:48.376Z,19.30
2017-06-10T21:44:22.522Z,19.20
2017-06-10T21:46:57.834Z,19.20
2017-06-10T21:49:32.393Z,19.20
2017-06-10T21:52:07.391Z,19.20
2017-06-10T21:54:41.345Z,19.10
2017-06-10T21:57:15.005Z,19.10
2017-06-10T21:59:48.898Z,19.10
2017-06-10T22:02:22.665Z,19.00
2017-06-10T22:04:57.300Z,19.00
2017-06-10T22:07:31.860Z,18.90
2017-06-10T22:10:06.045Z,18.90
2017-06-10T22:12:39.752Z,18.90
2017-06-10T22:15:13.729Z,18.80
2017-06-10T22:17:48.232Z,18.80
2017-06-10T22:20:22.959Z,18.70
2017-06-10T22:22:56.792Z,18.60
2017-06-10T22:25:30.484Z,18.70
2017-06-10T22:28:04.204Z,18.70
2017-06-10T22:30:38.736Z,18.60
2017-06-10T22:33:12.500Z,18.50
2017-06-10T22:35:47.929Z,18.60
2017-06-10T22:38:21.656Z,18.50
2017-06-10T22:40:55.618Z,18.50
2017-06-10T22:43:29.318Z,18.40
2017-06-10T22:46:03.233Z,18.40
2017-06-10T22:48:37.006Z,18.40
2017-06-10T22:51:11.525Z,18.30
2017-06-10T22:53:45.638Z,18.20
2017-06-10T22:56:19.561Z,18.30
2017-06-10T22:58:53.365Z,18.30
2017-06-10T23:01:27.113Z,18.20
2017-06-10T23:04:00.841Z,18.20
2017-06-10T23:06:35.637Z,18.20
2017-06-10T23:09:10.165Z,18.20
2017-06-10T23:11:44.261Z,18.10
2017-06-10T23:14:19.521Z,18.10
2017-06-10T23:16:53.520Z,18.00
2017-06-10T23:19:27.961Z,18.00
2017-06-10T23:22:01.937Z,18.00
2017-06-10T23:24:35.821Z,18.00
2017-06-10T23:27:10.553Z,17.90
2017-06-10T23:29:45.217Z,17.90
2017-06-10T23:32:19.300Z,17.80
2017-06-10T23:34:53.649Z,17.70
2017-06-10T23:37:28.849Z,17.70
2017-06-10T23:40:02.487Z,17.60
2017-06-10T23:42:36.362Z,17.60
2017-06-10T23:45:09.968Z,17.60
2017-06-10T23:47:44.365Z,17.50
2017-06-10T23:50:19.049Z,17.50
2017-06-10T23:52:53.044Z,17.40
2017-06-10T23:55:26.661Z,17.40
2017-06-10T23:58:01.132Z,17.40
